Preview of NWS' New Version of Forecast
This preview is not operational and should not be used for support decisions.

Terminal Aerodrome Forecast (TAF)

Issued by National Weather Service (NWS)

                            
000
FTUS46 KMFR 181140
TAFRBG
TAF
KRBG 181140Z 1812/1912 00000KT P6SM SKC
     FM182200 36008KT P6SM SKC
     FM190400 35002KT P6SM SKC=